Time;durP1;ratioP1;P1;durP2;ratioP2;P2;SDS_P1;SDS_P2;PMS_P1;PMS_P2;Temp;Humidity;BMP_temperature;BMP_pressure;BME280_temperature;BME280_humidity;BME280_pressure;Samples;Min_cycle;Max_cycle;Signal;HPM_P1;HPM_P2
2021/11/10 00:00:09;;;;;;;35.72;19.98;;;;;;;3.52;100.00;99479.28;4959745;29;20088;-80
2021/11/10 00:02:34;;;;;;;33.58;19.55;;;;;;;3.46;100.00;99473.88;4960108;28;20040;-82
2021/11/10 00:04:59;;;;;;;40.95;19.95;;;;;;;3.43;100.00;99474.31;4960068;28;21614;-73
2021/11/10 00:07:25;;;;;;;36.17;19.77;;;;;;;3.37;100.00;99470.59;4960134;28;20038;-75
2021/11/10 00:09:51;;;;;;;34.80;18.63;;;;;;;3.43;100.00;99460.78;4959565;29;20011;-82
2021/11/10 00:12:16;;;;;;;33.63;17.92;;;;;;;3.46;100.00;99471.19;4958887;29;20091;-77
2021/11/10 00:14:41;;;;;;;31.55;18.38;;;;;;;3.41;100.00;99461.03;4942795;28;20012;-75
2021/11/10 00:17:07;;;;;;;33.58;17.08;;;;;;;3.40;100.00;99462.06;4943015;29;20043;-81
2021/11/10 00:19:32;;;;;;;35.10;19.63;;;;;;;3.27;100.00;99462.06;4959698;29;20044;-81
2021/11/10 00:21:58;;;;;;;36.63;19.02;;;;;;;3.32;100.00;99469.56;4959184;29;20070;-80
2021/11/10 00:24:23;;;;;;;36.70;20.67;;;;;;;3.20;100.00;99470.19;4958574;29;20031;-74
2021/11/10 00:26:49;;;;;;;39.75;20.00;;;;;;;3.17;100.00;99467.91;4942932;29;20038;-81
2021/11/10 00:29:14;;;;;;;31.17;18.65;;;;;;;3.28;100.00;99454.81;4943046;29;20044;-76
2021/11/10 00:31:40;;;;;;;33.47;19.60;;;;;;;3.22;100.00;99459.19;4959087;29;20051;-79
2021/11/10 00:34:05;;;;;;;36.92;21.27;;;;;;;3.35;100.00;99448.34;4959247;29;20087;-72
2021/11/10 00:36:30;;;;;;;41.03;20.33;;;;;;;3.30;100.00;99442.72;4958954;29;20031;-78
2021/11/10 00:38:57;;;;;;;36.33;18.45;;;;;;;3.31;100.00;99440.84;4960775;29;20024;-78
2021/11/10 00:41:23;;;;;;;32.75;18.58;;;;;;;3.38;100.00;99447.09;4963125;29;20036;-74
2021/11/10 00:43:49;;;;;;;29.20;16.95;;;;;;;3.43;100.00;99452.69;4946761;29;20076;-72
2021/11/10 00:46:15;;;;;;;28.92;17.70;;;;;;;3.42;100.00;99454.53;4962008;29;20062;-77
2021/11/10 00:48:40;;;;;;;33.65;18.42;;;;;;;3.42;100.00;99453.72;4958454;29;20072;-78
2021/11/10 00:51:06;;;;;;;29.63;17.23;;;;;;;3.39;100.00;99465.78;4958557;29;20114;-77
2021/11/10 00:53:32;;;;;;;32.35;17.77;;;;;;;3.41;100.00;99463.72;4957944;29;20030;-80
2021/11/10 00:55:57;;;;;;;29.25;17.40;;;;;;;3.42;100.00;99464.53;4959808;29;20041;-78
2021/11/10 00:58:23;;;;;;;27.33;17.23;;;;;;;3.41;100.00;99471.84;4961538;29;20024;-80
2021/11/10 01:00:48;;;;;;;38.33;18.00;;;;;;;3.41;100.00;99471.84;4962296;29;20036;-81
2021/11/10 01:03:14;;;;;;;32.08;17.08;;;;;;;3.30;100.00;99477.88;4962922;29;20004;-70
2021/11/10 01:05:40;;;;;;;29.40;18.27;;;;;;;3.13;100.00;99473.97;4962670;29;20031;-79
2021/11/10 01:08:08;;;;;;;33.40;19.23;;;;;;;3.08;100.00;99476.44;4946191;29;20018;-76
2021/11/10 01:10:34;;;;;;;31.77;17.88;;;;;;;3.09;100.00;99465.44;4962277;29;20020;-79
2021/11/10 01:12:59;;;;;;;32.55;18.23;;;;;;;3.05;100.00;99464.19;4962502;29;20046;-78
2021/11/10 01:15:25;;;;;;;33.55;18.80;;;;;;;3.00;100.00;99464.00;4962659;29;20075;-72
2021/11/10 01:17:51;;;;;;;40.67;19.77;;;;;;;3.02;100.00;99456.50;4962503;29;20012;-73
2021/11/10 01:20:17;;;;;;;32.10;19.83;;;;;;;2.91;100.00;99457.16;4962669;29;20022;-75
2021/11/10 01:22:42;;;;;;;35.50;19.95;;;;;;;2.87;100.00;99461.31;4962368;29;20040;-73
2021/11/10 01:25:09;;;;;;;33.20;18.70;;;;;;;2.92;100.00;99463.38;4962368;29;20083;-72
2021/11/10 01:27:36;;;;;;;31.00;18.17;;;;;;;3.00;100.00;99455.91;4962469;29;20146;-71
2021/11/10 01:30:02;;;;;;;33.25;18.95;;;;;;;2.97;100.00;99453.63;4962351;29;20024;-72
2021/11/10 01:32:27;;;;;;;35.72;18.95;;;;;;;3.04;100.00;99459.81;4962657;28;20016;-70
2021/11/10 01:34:52;;;;;;;31.52;17.90;;;;;;;2.97;100.00;99450.91;4962290;28;20015;-71
2021/11/10 01:37:18;;;;;;;35.58;18.05;;;;;;;3.09;100.00;99451.09;4945945;29;20022;-77
2021/11/10 01:39:44;;;;;;;27.90;17.05;;;;;;;3.20;100.00;99456.69;4962212;28;20020;-71
2021/11/10 01:42:10;;;;;;;32.40;16.60;;;;;;;3.13;100.00;99453.16;4962330;28;20076;-71
2021/11/10 01:44:38;;;;;;;32.30;16.65;;;;;;;3.13;100.00;99444.25;4962363;28;20015;-70
2021/11/10 01:47:07;;;;;;;32.92;17.25;;;;;;;3.21;100.00;99433.19;4962258;28;20036;-70
2021/11/10 01:49:34;;;;;;;31.80;18.05;;;;;;;3.12;100.00;99440.69;4962092;28;20024;-73
2021/11/10 01:52:00;;;;;;;32.00;18.65;;;;;;;3.13;100.00;99433.44;4945423;29;20059;-70
2021/11/10 01:54:28;;;;;;;30.85;17.92;;;;;;;3.10;100.00;99429.25;4962299;28;20035;-71
2021/11/10 01:56:54;;;;;;;34.90;15.95;;;;;;;3.10;100.00;99426.53;4962044;28;20043;-71
2021/11/10 01:59:35;;;;;;;28.42;15.77;;;;;;;3.14;100.00;99435.06;4962007;28;20019;-74
2021/11/10 02:02:04;;;;;;;28.50;16.55;;;;;;;3.06;100.00;99430.72;4962462;28;20079;-70
2021/11/10 02:04:31;;;;;;;29.13;16.73;;;;;;;3.06;100.00;99430.72;4961590;28;20012;-74
2021/11/10 02:06:59;;;;;;;30.48;16.90;;;;;;;3.03;100.00;99424.91;4953251;29;20028;-79
2021/11/10 02:09:25;;;;;;;28.85;17.60;;;;;;;3.09;100.00;99408.69;4922582;29;20017;-79
2021/11/10 02:11:55;;;;;;;30.83;17.17;;;;;;;3.13;100.00;99418.00;4923843;29;20064;-78
2021/11/10 02:14:23;;;;;;;30.10;17.20;;;;;;;3.14;100.00;99421.56;4924035;29;20020;-80
2021/11/10 02:16:50;;;;;;;32.10;17.67;;;;;;;3.06;100.00;99411.81;4940204;29;20052;-78
2021/11/10 02:19:16;;;;;;;31.90;17.05;;;;;;;3.02;100.00;99424.06;4939920;29;20060;-79
2021/11/10 02:21:49;;;;;;;37.00;16.60;;;;;;;3.05;100.00;99404.72;4940039;29;20039;-80
2021/11/10 02:24:16;;;;;;;34.22;17.55;;;;;;;3.04;100.00;99408.47;4940207;29;21387;-81
2021/11/10 02:26:43;;;;;;;28.05;17.05;;;;;;;2.98;100.00;99416.59;4940436;29;20028;-82
2021/11/10 02:29:10;;;;;;;31.80;16.33;;;;;;;2.91;100.00;99408.53;4939622;29;20032;-80
2021/11/10 02:31:35;;;;;;;29.60;16.58;;;;;;;2.96;100.00;99414.13;4937569;29;20044;-82
2021/11/10 02:34:03;;;;;;;31.52;17.05;;;;;;;2.93;100.00;99417.22;4937807;29;20091;-79
2021/11/10 02:36:30;;;;;;;33.33;17.45;;;;;;;2.89;100.00;99413.28;4938857;29;20020;-80
2021/11/10 02:38:56;;;;;;;33.60;17.55;;;;;;;2.89;100.00;99418.69;4939401;29;20028;-78
2021/11/10 02:41:22;;;;;;;30.98;16.33;;;;;;;2.87;100.00;99409.97;4937703;29;20044;-78
2021/11/10 02:43:47;;;;;;;27.30;16.27;;;;;;;2.80;100.00;99406.44;4934210;29;20016;-77
2021/11/10 02:46:13;;;;;;;30.27;15.80;;;;;;;2.74;100.00;99406.44;4937044;29;20062;-79
2021/11/10 02:48:38;;;;;;;24.83;14.73;;;;;;;2.72;100.00;99403.13;4912286;29;20032;-77
2021/11/10 02:51:07;;;;;;;25.10;15.00;;;;;;;2.60;100.00;99413.75;4906566;29;20043;-77
2021/11/10 02:53:33;;;;;;;27.58;14.60;;;;;;;2.55;100.00;99410.81;4933992;29;20024;-79
2021/11/10 02:55:58;;;;;;;21.35;13.82;;;;;;;2.48;100.00;99413.50;4933970;29;20039;-79
2021/11/10 02:58:24;;;;;;;23.15;12.73;;;;;;;2.42;100.00;99413.50;4931756;29;20032;-80
2021/11/10 03:00:49;;;;;;;24.35;14.60;;;;;;;2.41;100.00;99411.88;4935594;29;20031;-80
2021/11/10 03:03:15;;;;;;;21.25;12.77;;;;;;;2.32;100.00;99415.81;4934192;29;20028;-76
2021/11/10 03:05:45;;;;;;;22.05;13.35;;;;;;;2.32;100.00;99418.50;4933762;29;20031;-76
2021/11/10 03:08:11;;;;;;;25.10;12.32;;;;;;;2.36;100.00;99414.34;4935052;29;20032;-79
2021/11/10 03:10:36;;;;;;;19.48;12.05;;;;;;;2.29;100.00;99410.81;4932995;29;20016;-77
2021/11/10 03:13:02;;;;;;;24.73;12.73;;;;;;;2.35;100.00;99416.19;4917717;29;20032;-80
2021/11/10 03:15:27;;;;;;;23.25;12.63;;;;;;;2.35;100.00;99410.78;4930961;29;20805;-79
2021/11/10 03:17:53;;;;;;;21.40;12.75;;;;;;;2.32;100.00;99418.50;4930801;29;20020;-79
2021/11/10 03:20:18;;;;;;;22.23;12.35;;;;;;;2.25;100.00;99423.06;4930263;29;20043;-79
2021/11/10 03:22:44;;;;;;;19.40;13.00;;;;;;;2.20;100.00;99431.75;4929239;29;20083;-79
2021/11/10 03:25:09;;;;;;;23.05;13.30;;;;;;;2.35;100.00;99426.19;4929537;29;20064;-80
2021/11/10 03:27:35;;;;;;;20.33;12.20;;;;;;;2.37;100.00;99424.94;4930374;29;20028;-79
2021/11/10 03:30:01;;;;;;;19.73;12.60;;;;;;;2.31;100.00;99422.22;4929856;29;20064;-80
2021/11/10 03:32:26;;;;;;;25.15;13.25;;;;;;;2.35;100.00;99423.50;4935236;29;20032;-80
2021/11/10 03:34:52;;;;;;;20.88;11.85;;;;;;;2.34;100.00;99411.84;4940087;29;20020;-77
2021/11/10 03:37:17;;;;;;;21.58;11.98;;;;;;;2.42;100.00;99410.81;4940553;29;20005;-79
2021/11/10 03:39:43;;;;;;;21.98;12.63;;;;;;;2.40;100.00;99407.50;4940099;29;20036;-76
2021/11/10 03:42:09;;;;;;;23.13;11.77;;;;;;;2.35;100.00;99412.69;4924021;29;20043;-80
2021/11/10 03:44:34;;;;;;;21.08;12.90;;;;;;;2.31;100.00;99406.03;4932574;29;20037;-81
2021/11/10 03:47:00;;;;;;;20.48;12.25;;;;;;;2.28;100.00;99411.84;4927285;29;20079;-81
2021/11/10 03:49:25;;;;;;;20.25;12.35;;;;;;;2.21;100.00;99419.09;4933422;29;20012;-79
2021/11/10 03:51:53;;;;;;;27.50;13.93;;;;;;;2.20;100.00;99420.13;4941001;29;20040;-73
2021/11/10 03:54:20;;;;;;;23.33;12.95;;;;;;;2.22;100.00;99423.47;4940851;29;20023;-78
2021/11/10 03:56:46;;;;;;;26.90;12.45;;;;;;;2.16;100.00;99417.84;4941020;29;20023;-75
2021/11/10 03:59:12;;;;;;;20.08;13.18;;;;;;;2.20;100.00;99417.44;4940575;29;20029;-74
2021/11/10 04:01:38;;;;;;;23.73;13.27;;;;;;;2.22;100.00;99420.78;4941216;29;20028;-79
2021/11/10 04:04:05;;;;;;;21.75;12.63;;;;;;;2.19;100.00;99407.69;4941224;29;20039;-73
2021/11/10 04:06:31;;;;;;;20.83;13.07;;;;;;;2.05;100.00;99413.06;4940371;29;20036;-74
2021/11/10 04:08:57;;;;;;;21.92;12.52;;;;;;;2.01;100.00;99413.66;4941039;29;20040;-75
2021/11/10 04:11:23;;;;;;;19.48;12.38;;;;;;;1.94;100.00;99419.03;4939960;29;20015;-75
2021/11/10 04:13:52;;;;;;;19.45;12.07;;;;;;;1.85;100.00;99412.16;4941038;29;20043;-79
2021/11/10 04:16:22;;;;;;;17.85;11.77;;;;;;;1.81;100.00;99419.03;4926034;29;20123;-79
2021/11/10 04:18:50;;;;;;;25.13;12.60;;;;;;;1.85;100.00;99417.56;4925518;29;20028;-76
2021/11/10 04:21:17;;;;;;;19.20;11.85;;;;;;;1.94;100.00;99415.53;4942925;29;20056;-81
2021/11/10 04:23:43;;;;;;;20.35;10.38;;;;;;;2.01;100.00;99411.78;4941825;29;20024;-79
2021/11/10 04:26:08;;;;;;;18.38;11.63;;;;;;;1.95;100.00;99415.31;4940384;29;20048;-78
2021/11/10 04:28:33;;;;;;;17.27;10.65;;;;;;;1.95;100.00;99409.91;4941688;29;20012;-81
2021/11/10 04:30:59;;;;;;;17.17;10.48;;;;;;;1.96;100.00;99405.34;4941902;29;20056;-80
2021/11/10 04:33:25;;;;;;;16.75;11.00;;;;;;;1.94;100.00;99413.63;4943489;29;20036;-79
2021/11/10 04:35:51;;;;;;;15.35;10.20;;;;;;;1.97;100.00;99413.22;4942998;29;20061;-78
2021/11/10 04:38:17;;;;;;;13.70;8.57;;;;;;;1.98;100.00;99414.06;4942327;29;20028;-79
2021/11/10 04:40:43;;;;;;;16.25;10.75;;;;;;;1.91;100.00;99397.88;4942479;29;20047;-78
2021/11/10 04:43:09;;;;;;;17.92;11.68;;;;;;;1.76;100.00;99390.97;4942135;29;20027;-79
2021/11/10 04:45:37;;;;;;;17.67;11.02;;;;;;;1.72;100.00;99390.59;4940475;29;20091;-81
2021/11/10 04:48:03;;;;;;;20.92;13.10;;;;;;;1.70;100.00;99391.78;4941710;29;20034;-80
2021/11/10 04:50:30;;;;;;;19.25;12.30;;;;;;;1.71;100.00;99385.38;4941568;29;20076;-76
2021/11/10 04:52:57;;;;;;;16.30;11.05;;;;;;;1.79;100.00;99382.47;4941881;29;20016;-77
2021/11/10 04:55:22;;;;;;;19.08;11.20;;;;;;;1.83;100.00;99392.66;4941646;29;20047;-79
2021/11/10 04:57:47;;;;;;;17.33;11.25;;;;;;;1.90;100.00;99390.00;4941907;29;20032;-80
2021/11/10 05:00:14;;;;;;;16.85;11.07;;;;;;;1.91;100.00;99394.38;4943390;29;20038;-75
2021/11/10 05:02:40;;;;;;;17.40;10.88;;;;;;;1.97;100.00;99399.75;4944084;29;20046;-75
2021/11/10 05:05:06;;;;;;;16.38;10.30;;;;;;;2.02;100.00;99394.59;4943722;29;20016;-76
2021/11/10 05:07:32;;;;;;;16.92;10.27;;;;;;;2.11;100.00;99392.50;4943564;29;20056;-75
2021/11/10 05:09:58;;;;;;;21.67;12.70;;;;;;;2.01;100.00;99395.59;4943323;29;20016;-78
2021/11/10 05:12:24;;;;;;;16.70;11.35;;;;;;;2.05;100.00;99399.56;4943500;29;20088;-79
2021/11/10 05:14:55;;;;;;;19.67;13.45;;;;;;;1.95;100.00;99396.44;4926181;29;20048;-75
2021/11/10 05:17:21;;;;;;;19.88;12.15;;;;;;;1.98;100.00;99408.69;4942952;29;20028;-77
2021/11/10 05:19:47;;;;;;;21.67;12.60;;;;;;;1.97;100.00;99415.94;4944753;29;20047;-73
2021/11/10 05:22:13;;;;;;;24.48;14.30;;;;;;;1.95;100.00;99412.63;4962300;29;20023;-73
2021/11/10 05:24:39;;;;;;;34.88;15.15;;;;;;;2.03;100.00;99415.16;4951502;28;20028;-75
2021/11/10 05:27:04;;;;;;;27.45;15.55;;;;;;;2.10;100.00;99415.97;4947723;29;20025;-75
2021/11/10 05:29:30;;;;;;;28.92;16.00;;;;;;;2.11;100.00;99406.00;4953001;28;20052;-79
2021/11/10 05:31:57;;;;;;;28.17;15.13;;;;;;;2.15;100.00;99402.72;4948199;29;20015;-82
2021/11/10 05:34:23;;;;;;;33.22;16.42;;;;;;;2.22;100.00;99401.88;4962240;28;20012;-75
2021/11/10 05:36:49;;;;;;;23.65;14.25;;;;;;;2.15;100.00;99391.06;4946310;28;20036;-74
2021/11/10 05:39:16;;;;;;;27.92;16.75;;;;;;;2.12;100.00;99396.88;4939111;29;20036;-80
2021/11/10 05:41:42;;;;;;;32.70;15.98;;;;;;;2.09;100.00;99410.78;4932976;29;20020;-71
2021/11/10 05:44:07;;;;;;;35.72;16.50;;;;;;;2.04;100.00;99416.78;4961995;28;20022;-73
2021/11/10 05:46:32;;;;;;;36.22;17.17;;;;;;;2.07;100.00;99412.84;4962094;28;20016;-74
2021/11/10 05:48:58;;;;;;;33.08;18.88;;;;;;;2.04;100.00;99413.25;4960484;29;20028;-76
2021/11/10 05:51:23;;;;;;;28.42;16.63;;;;;;;2.05;100.00;99426.56;4960768;29;20087;-76
2021/11/10 05:53:51;;;;;;;29.17;16.25;;;;;;;2.21;100.00;99421.81;4961846;28;20016;-77
2021/11/10 05:56:19;;;;;;;27.35;15.50;;;;;;;2.31;100.00;99420.38;4942260;29;20016;-72
2021/11/10 05:58:45;;;;;;;30.17;16.45;;;;;;;2.38;100.00;99418.47;4946056;29;20004;-75
2021/11/10 06:01:11;;;;;;;26.77;15.77;;;;;;;2.52;100.00;99436.38;4944922;29;20898;-75
2021/11/10 06:03:36;;;;;;;29.60;15.95;;;;;;;2.59;100.00;99417.47;4931302;29;20024;-78
2021/11/10 06:06:02;;;;;;;34.60;16.33;;;;;;;2.54;100.00;99417.25;4926533;29;20030;-73
2021/11/10 06:08:28;;;;;;;26.63;16.10;;;;;;;2.49;100.00;99400.84;4924555;29;20020;-72
2021/11/10 06:10:53;;;;;;;30.23;16.00;;;;;;;2.59;100.00;99410.22;4939272;29;20020;-79
2021/11/10 06:13:18;;;;;;;28.67;16.45;;;;;;;2.57;100.00;99404.16;4937797;29;20111;-80
2021/11/10 06:15:44;;;;;;;37.28;16.83;;;;;;;2.69;100.00;99399.78;4931090;29;20028;-79
2021/11/10 06:18:09;;;;;;;30.17;15.73;;;;;;;2.65;100.00;99403.13;4934492;29;20051;-80
2021/11/10 06:20:35;;;;;;;33.90;16.95;;;;;;;2.52;100.00;99400.44;4939120;29;20028;-81
2021/11/10 06:23:02;;;;;;;30.90;17.23;;;;;;;2.58;100.00;99396.91;4939103;29;20099;-80
2021/11/10 06:25:29;;;;;;;38.05;18.27;;;;;;;2.57;100.00;99395.22;4937521;29;20076;-78
2021/11/10 06:27:55;;;;;;;38.55;17.92;;;;;;;2.48;100.00;99400.00;4935704;29;20039;-76
2021/11/10 06:30:20;;;;;;;30.17;16.48;;;;;;;2.51;100.00;99401.47;4940302;29;20039;-78
2021/11/10 06:32:46;;;;;;;48.03;18.35;;;;;;;2.61;100.00;99401.88;4942032;29;20031;-78
2021/11/10 06:35:12;;;;;;;44.70;18.15;;;;;;;2.58;100.00;99411.22;4941896;29;20020;-77
2021/11/10 06:37:38;;;;;;;46.75;18.35;;;;;;;2.62;100.00;99411.66;4940664;29;20032;-82
2021/11/10 06:40:06;;;;;;;41.13;18.73;;;;;;;2.61;100.00;99413.50;4940229;29;20066;-73
2021/11/10 06:42:31;;;;;;;37.90;17.83;;;;;;;2.67;100.00;99418.09;4941408;29;20048;-79
2021/11/10 06:44:57;;;;;;;46.28;18.58;;;;;;;2.76;100.00;99416.00;4941743;29;20052;-72
2021/11/10 06:47:24;;;;;;;45.13;21.48;;;;;;;2.83;100.00;99416.00;4940794;29;20045;-73
2021/11/10 06:49:49;;;;;;;31.17;18.35;;;;;;;2.93;100.00;99419.94;4941572;29;20044;-75
2021/11/10 06:52:15;;;;;;;40.78;19.70;;;;;;;2.97;100.00;99412.25;4941334;29;20060;-79
2021/11/10 06:54:40;;;;;;;30.92;15.98;;;;;;;2.94;100.00;99413.50;4941592;29;20064;-73
2021/11/10 06:57:06;;;;;;;34.47;17.80;;;;;;;3.00;100.00;99420.75;4940503;29;20040;-78
2021/11/10 06:59:31;;;;;;;36.13;17.83;;;;;;;2.96;100.00;99415.97;4940625;29;20095;-79
2021/11/10 07:01:56;;;;;;;33.85;17.25;;;;;;;3.06;100.00;99421.78;4938724;29;20024;-81
2021/11/10 07:04:24;;;;;;;27.77;17.00;;;;;;;3.06;100.00;99411.81;4939214;29;20036;-82
2021/11/10 07:06:51;;;;;;;31.30;17.55;;;;;;;3.19;100.00;99425.31;4940520;29;20012;-77
2021/11/10 07:09:16;;;;;;;31.73;17.52;;;;;;;3.26;100.00;99419.03;4940779;29;20012;-80
2021/11/10 07:11:42;;;;;;;31.60;16.88;;;;;;;3.32;100.00;99413.59;4939711;29;20020;-76
2021/11/10 07:14:08;;;;;;;34.95;17.20;;;;;;;3.35;100.00;99409.66;4938643;29;20029;-74
2021/11/10 07:16:34;;;;;;;34.47;18.35;;;;;;;3.39;100.00;99411.72;4917215;29;20024;-72
2021/11/10 07:19:01;;;;;;;41.75;18.92;;;;;;;3.30;100.00;99409.44;4913203;29;20048;-73
2021/11/10 07:21:27;;;;;;;40.45;18.40;;;;;;;3.25;100.00;99412.81;4939890;29;20032;-73
2021/11/10 07:23:56;;;;;;;31.48;17.92;;;;;;;3.34;100.00;99413.41;4941063;29;20032;-73
2021/11/10 07:26:22;;;;;;;35.30;17.38;;;;;;;3.55;100.00;99410.41;4940276;29;20012;-74
2021/11/10 07:28:48;;;;;;;30.52;16.25;;;;;;;3.65;100.00;99416.19;4941205;29;20064;-74
2021/11/10 07:31:14;;;;;;;29.40;16.05;;;;;;;3.71;100.00;99415.31;4941295;29;20021;-73
2021/11/10 07:33:40;;;;;;;28.15;15.77;;;;;;;3.84;100.00;99409.03;4941515;29;20027;-74
2021/11/10 07:36:05;;;;;;;25.33;15.27;;;;;;;3.94;100.00;99407.53;4940944;29;20035;-73
2021/11/10 07:38:31;;;;;;;29.02;14.98;;;;;;;4.15;100.00;99417.16;4941197;29;20020;-75
2021/11/10 07:40:58;;;;;;;27.80;14.60;;;;;;;4.23;100.00;99415.03;4941215;29;20020;-73
2021/11/10 07:43:24;;;;;;;24.10;13.80;;;;;;;4.36;100.00;99413.28;4924678;29;20008;-74
2021/11/10 07:45:53;;;;;;;25.27;13.95;;;;;;;4.48;100.00;99411.53;4941050;29;20036;-74
2021/11/10 07:48:19;;;;;;;22.00;13.88;;;;;;;4.55;100.00;99413.13;4939272;29;20015;-73
2021/11/10 07:50:45;;;;;;;23.45;13.55;;;;;;;4.59;100.00;99399.97;4940768;29;20020;-76
2021/11/10 07:53:10;;;;;;;23.52;13.73;;;;;;;4.61;100.00;99409.53;4940985;29;20100;-72
2021/11/10 07:55:35;;;;;;;21.75;13.15;;;;;;;4.47;100.00;99404.44;4924786;29;20036;-78
2021/11/10 07:58:02;;;;;;;20.77;11.88;;;;;;;4.40;100.00;99387.41;4940032;29;20038;-80
2021/11/10 08:00:28;;;;;;;21.95;13.20;;;;;;;4.53;100.00;99393.56;4940900;29;20028;-72
2021/11/10 08:02:54;;;;;;;23.48;14.10;;;;;;;4.66;100.00;99389.91;4940764;29;20012;-76
2021/11/10 08:05:19;;;;;;;25.23;13.93;;;;;;;4.76;100.00;99382.91;4939542;29;20532;-77
2021/11/10 08:07:45;;;;;;;21.95;13.13;;;;;;;4.65;100.00;99385.53;4939180;29;20019;-81
2021/11/10 08:10:12;;;;;;;26.02;15.18;;;;;;;4.79;100.00;99381.69;4939464;29;20033;-75
2021/11/10 08:12:38;;;;;;;25.90;14.77;;;;;;;5.04;100.00;99381.63;4923420;29;20048;-81
2021/11/10 08:15:09;;;;;;;32.20;16.30;;;;;;;5.25;100.00;99387.44;4938612;29;20060;-78
2021/11/10 08:17:35;;;;;;;25.70;16.15;;;;;;;5.17;100.00;99370.66;4923448;29;20034;-77
2021/11/10 08:20:13;;;;;;;24.15;14.75;;;;;;;5.29;100.00;99374.25;4920824;29;20072;-80
2021/11/10 08:22:40;;;;;;;26.52;15.52;;;;;;;5.56;100.00;99367.44;4918625;29;20040;-78
2021/11/10 08:25:07;;;;;;;24.67;15.93;;;;;;;5.92;100.00;99361.13;4942075;29;20056;-77
2021/11/10 08:27:35;;;;;;;34.65;16.98;;;;;;;6.11;100.00;99376.31;4951500;29;20054;-80
2021/11/10 08:30:03;;;;;;;25.27;15.00;;;;;;;6.48;100.00;99368.88;4947098;29;20059;-79
2021/11/10 08:32:29;;;;;;;26.45;15.32;;;;;;;7.02;100.00;99384.00;4955657;29;20023;-78
2021/11/10 08:34:54;;;;;;;32.55;17.75;;;;;;;6.34;100.00;99373.69;4958295;29;20024;-74
2021/11/10 08:37:20;;;;;;;27.17;15.80;;;;;;;6.55;100.00;99383.16;4956766;29;20024;-78
2021/11/10 08:39:45;;;;;;;29.90;16.52;;;;;;;6.76;99.61;99368.19;4957736;29;20019;-78
2021/11/10 08:42:12;;;;;;;29.13;16.05;;;;;;;7.27;97.77;99370.97;4954845;29;20039;-79
2021/11/10 08:44:41;;;;;;;33.03;16.77;;;;;;;7.84;93.11;99361.00;4932627;29;20032;-76
2021/11/10 08:47:07;;;;;;;27.38;16.63;;;;;;;7.91;91.80;99355.41;4943833;29;20039;-79
2021/11/10 08:49:32;;;;;;;30.67;15.80;;;;;;;8.72;87.78;99373.22;4934333;29;20032;-82
2021/11/10 08:51:58;;;;;;;26.80;16.73;;;;;;;8.95;86.30;99362.16;4938782;29;20064;-77
2021/11/10 08:54:25;;;;;;;29.00;16.67;;;;;;;8.86;84.65;99372.66;4939621;29;20023;-76
2021/11/10 08:56:53;;;;;;;26.55;16.48;;;;;;;8.90;84.90;99372.97;4939376;29;20016;-76
2021/11/10 08:59:20;;;;;;;35.67;17.30;;;;;;;8.47;86.44;99377.19;4938152;29;20052;-79
2021/11/10 09:01:47;;;;;;;32.65;16.95;;;;;;;8.21;88.09;99375.03;4937805;29;20024;-80
2021/11/10 09:04:15;;;;;;;30.35;17.35;;;;;;;8.35;87.80;99376.44;4937817;29;20032;-76
2021/11/10 09:06:41;;;;;;;25.98;14.88;;;;;;;8.56;85.82;99369.41;4943086;29;20031;-81
2021/11/10 09:09:06;;;;;;;32.60;16.20;;;;;;;8.72;85.54;99368.59;4943291;29;20025;-79
2021/11/10 09:11:34;;;;;;;27.60;16.77;;;;;;;8.17;88.30;99373.06;4943370;29;20030;-76
2021/11/10 09:14:03;;;;;;;32.58;16.58;;;;;;;8.66;86.88;99385.13;4944005;29;20076;-77
2021/11/10 09:16:28;;;;;;;34.45;16.13;;;;;;;8.69;86.63;99390.91;4927294;29;20028;-74
2021/11/10 09:18:54;;;;;;;33.33;16.15;;;;;;;9.10;83.73;99379.56;4943602;29;20024;-72
2021/11/10 09:21:19;;;;;;;23.23;14.55;;;;;;;9.86;80.96;99385.22;4943598;29;20023;-73
2021/11/10 09:23:45;;;;;;;23.90;12.95;;;;;;;10.61;78.56;99393.41;4943570;29;20024;-73
2021/11/10 09:26:10;;;;;;;20.48;12.73;;;;;;;11.14;75.62;99379.59;4943239;29;20031;-73
2021/11/10 09:28:37;;;;;;;25.58;14.65;;;;;;;11.89;72.52;99383.03;4943079;29;20008;-76
2021/11/10 09:31:05;;;;;;;21.02;11.40;;;;;;;12.02;70.55;99380.63;4943391;29;20024;-73
2021/11/10 09:33:35;;;;;;;19.08;12.20;;;;;;;12.41;71.11;99386.47;4942956;29;20040;-73
2021/11/10 09:36:01;;;;;;;18.17;12.23;;;;;;;14.06;64.36;99380.19;4942728;29;20018;-80
2021/11/10 09:38:27;;;;;;;18.00;12.48;;;;;;;15.07;61.78;99369.28;4926387;29;20071;-75
2021/11/10 09:40:58;;;;;;;21.17;13.20;;;;;;;15.16;60.10;99381.34;4943117;29;20017;-74
2021/11/10 09:43:24;;;;;;;17.02;11.82;;;;;;;15.07;59.62;99365.75;4942986;29;20012;-78
2021/11/10 09:45:50;;;;;;;17.73;12.75;;;;;;;15.69;57.04;99378.63;4942505;29;20059;-75
2021/11/10 09:48:15;;;;;;;22.52;12.02;;;;;;;15.37;57.64;99385.56;4942575;29;20048;-76
2021/11/10 09:50:44;;;;;;;19.23;11.63;;;;;;;16.29;55.70;99385.31;4942669;29;20016;-76
2021/11/10 09:53:10;;;;;;;16.73;11.77;;;;;;;16.24;54.63;99377.09;4942659;29;20024;-80
2021/11/10 09:55:35;;;;;;;15.38;11.10;;;;;;;16.02;54.63;99369.38;4942492;29;20012;-78
2021/11/10 09:58:02;;;;;;;18.67;12.15;;;;;;;16.27;53.84;99365.44;4940174;29;20020;-78
2021/11/10 10:00:33;;;;;;;17.65;11.48;;;;;;;17.17;50.46;99362.34;4942456;29;20026;-79
2021/11/10 10:03:00;;;;;;;21.80;11.48;;;;;;;17.18;49.90;99372.31;4926025;29;20037;-81
2021/11/10 10:05:27;;;;;;;17.15;11.15;;;;;;;16.58;51.35;99367.50;4941514;29;21233;-81
2021/11/10 10:07:54;;;;;;;19.20;12.10;;;;;;;17.02;50.86;99358.75;4941089;29;20089;-79
2021/11/10 10:10:20;;;;;;;16.33;11.75;;;;;;;16.88;50.95;99355.16;4942045;29;20016;-77
2021/11/10 10:12:54;;;;;;;22.10;12.70;;;;;;;16.79;52.03;99351.41;4940759;29;20020;-77
2021/11/10 10:15:57;;;;;;;18.70;12.27;;;;;;;17.07;50.60;99344.03;4942598;29;20024;-81
2021/11/10 10:18:26;;;;;;;21.05;11.90;;;;;;;17.27;50.54;99340.06;4953798;28;20043;-78
2021/11/10 10:20:55;;;;;;;26.27;12.65;;;;;;;17.07;51.23;99330.22;4961474;28;20063;-81
2021/11/10 10:23:25;;;;;;;17.90;10.88;;;;;;;17.43;49.59;99333.13;4961495;28;20019;-74
2021/11/10 10:25:57;;;;;;;15.98;11.25;;;;;;;16.58;51.55;99327.97;4960757;28;20012;-83
2021/11/10 10:28:33;;;;;;;15.65;11.77;;;;;;;15.35;54.48;99320.75;4961074;28;20079;-72
2021/11/10 10:31:13;;;;;;;17.15;12.13;;;;;;;14.72;56.85;99320.84;4961287;28;20035;-72
2021/11/10 10:33:42;;;;;;;20.42;12.45;;;;;;;14.23;58.78;99320.09;4960954;28;20033;-77
2021/11/10 10:36:11;;;;;;;19.85;12.57;;;;;;;14.46;59.07;99313.91;4957383;29;20062;-78
2021/11/10 10:38:43;;;;;;;16.98;11.68;;;;;;;14.25;59.43;99312.38;4959922;28;20092;-78
2021/11/10 10:41:10;;;;;;;17.48;11.50;;;;;;;15.38;56.78;99303.66;4960551;28;20011;-75
2021/11/10 10:43:41;;;;;;;20.42;11.50;;;;;;;15.82;55.27;99298.69;4961111;29;20024;-76
2021/11/10 10:46:08;;;;;;;18.73;13.70;;;;;;;15.61;55.71;99300.09;4961121;28;20015;-77
2021/11/10 10:48:34;;;;;;;17.20;11.18;;;;;;;13.37;60.45;99290.28;4960293;28;20028;-81
2021/11/10 10:51:03;;;;;;;21.95;11.65;;;;;;;12.95;64.10;99284.31;4957203;29;20043;-81
2021/11/10 10:53:46;;;;;;;17.58;10.85;;;;;;;12.37;65.96;99286.59;4957450;29;20031;-79
2021/11/10 10:56:30;;;;;;;15.88;11.23;;;;;;;12.38;66.55;99281.91;4957586;29;20016;-79
2021/11/10 10:59:00;;;;;;;27.02;10.48;;;;;;;11.93;68.70;99279.97;4942900;29;20032;-78
2021/11/10 11:01:30;;;;;;;18.25;11.90;;;;;;;11.92;69.37;99286.53;4969972;29;20071;-77
2021/11/10 11:03:58;;;;;;;16.38;11.65;;;;;;;12.42;67.56;99270.13;4978824;28;20022;-75
2021/11/10 11:06:47;;;;;;;19.27;11.48;;;;;;;13.10;65.54;99254.09;4978822;28;20031;-77
2021/11/10 11:09:13;;;;;;;26.05;11.75;;;;;;;13.70;62.80;99264.00;4979031;28;20035;-74
2021/11/10 11:11:46;;;;;;;16.60;10.98;;;;;;;13.86;62.33;99251.81;4979752;28;20015;-79
2021/11/10 11:14:37;;;;;;;21.42;11.75;;;;;;;13.46;63.76;99252.88;4979653;28;20047;-78